createdAt,value
2024-02-19T00:00:58.485Z,6.18
2024-02-19T00:03:46.958Z,6.82
2024-02-19T00:06:28.235Z,6.18
2024-02-19T00:09:15.375Z,6.20
2024-02-19T00:11:56.395Z,6.07
2024-02-19T00:14:43.299Z,5.68
2024-02-19T00:17:24.268Z,5.70
2024-02-19T00:20:11.588Z,5.53
2024-02-19T00:22:51.250Z,6.68
2024-02-19T00:25:39.392Z,5.63
2024-02-19T00:28:20.305Z,5.88
2024-02-19T00:31:10.262Z,6.43
2024-02-19T00:33:51.409Z,5.97
2024-02-19T00:36:39.412Z,5.78
2024-02-19T00:39:21.209Z,7.63
2024-02-19T00:42:08.277Z,5.50
2024-02-19T00:44:56.205Z,5.80
2024-02-19T00:47:43.447Z,5.38
2024-02-19T00:50:24.182Z,5.63
2024-02-19T00:53:11.285Z,7.05
2024-02-19T00:55:53.844Z,4.97
2024-02-19T00:58:41.263Z,5.63
2024-02-19T01:01:22.280Z,5.50
2024-02-19T01:04:09.446Z,5.53
2024-02-19T01:06:49.142Z,6.45
2024-02-19T01:09:36.326Z,5.95
2024-02-19T01:12:16.249Z,5.00
2024-02-19T01:15:03.843Z,4.53
2024-02-19T01:17:45.342Z,6.70
2024-02-19T01:20:32.277Z,6.93
2024-02-19T01:23:13.198Z,7.53
2024-02-19T01:26:00.252Z,7.80
2024-02-19T01:28:48.136Z,6.72
2024-02-19T01:31:28.925Z,6.75
2024-02-19T01:34:17.257Z,6.97
2024-02-19T01:36:58.949Z,5.28
2024-02-19T01:39:46.157Z,5.57
2024-02-19T01:42:26.263Z,5.97
2024-02-19T01:45:29.136Z,5.30
2024-02-19T01:48:10.636Z,6.35
2024-02-19T01:50:58.198Z,5.00
2024-02-19T01:53:38.250Z,5.18
2024-02-19T01:56:26.185Z,5.80
2024-02-19T01:59:15.216Z,4.90
2024-02-19T02:01:56.251Z,5.15
2024-02-19T02:04:44.286Z,5.70
2024-02-19T02:07:26.176Z,5.45
2024-02-19T02:10:14.573Z,5.20
2024-02-19T02:12:55.229Z,5.13
2024-02-19T02:15:42.210Z,5.50
2024-02-19T02:18:24.243Z,5.78
2024-02-19T02:21:11.657Z,7.40
2024-02-19T02:23:52.234Z,6.38
2024-02-19T02:26:39.277Z,6.03
2024-02-19T02:29:20.140Z,5.97
2024-02-19T02:32:07.234Z,5.60
2024-02-19T02:34:48.205Z,5.97
2024-02-19T02:37:35.341Z,6.82
2024-02-19T02:40:16.316Z,8.27
2024-02-19T02:43:04.026Z,6.55
2024-02-19T02:45:53.578Z,7.13
2024-02-19T02:48:34.594Z,6.30
2024-02-19T02:51:21.118Z,6.70
2024-02-19T02:54:01.259Z,6.28
2024-02-19T02:56:48.254Z,6.63
2024-02-19T02:59:35.208Z,7.22
2024-02-19T03:02:16.205Z,7.28
2024-02-19T03:05:03.536Z,7.22
2024-02-19T03:07:44.099Z,7.35
2024-02-19T03:10:31.787Z,7.57
2024-02-19T03:13:12.120Z,6.63
2024-02-19T03:15:59.240Z,7.63
2024-02-19T03:18:41.249Z,7.25
2024-02-19T03:21:29.555Z,6.38
2024-02-19T03:24:10.101Z,6.80
2024-02-19T03:26:59.082Z,7.00
2024-02-19T03:29:40.191Z,7.93
2024-02-19T03:32:27.146Z,8.07
2024-02-19T03:35:07.210Z,7.40
2024-02-19T03:37:54.132Z,9.23
2024-02-19T03:40:34.237Z,7.80
2024-02-19T03:43:21.401Z,7.82
2024-02-19T03:46:02.959Z,8.10
2024-02-19T03:48:51.269Z,8.05
2024-02-19T03:51:32.242Z,10.02
2024-02-19T03:54:19.192Z,8.63
2024-02-19T03:57:13.067Z,7.60
2024-02-19T04:00:00.136Z,7.85
2024-02-19T04:02:41.464Z,6.65
2024-02-19T04:05:28.060Z,6.88
2024-02-19T04:08:09.855Z,7.40
2024-02-19T04:10:57.195Z,8.93
2024-02-19T04:13:37.273Z,8.60
2024-02-19T04:16:24.190Z,8.70
2024-02-19T04:19:04.397Z,9.40
2024-02-19T04:21:53.190Z,9.23
2024-02-19T04:24:34.198Z,8.57
2024-02-19T04:27:22.162Z,9.75
2024-02-19T04:30:02.171Z,9.23
2024-02-19T04:32:49.158Z,9.77
2024-02-19T04:35:29.177Z,8.88
2024-02-19T04:38:16.015Z,9.35
2024-02-19T04:40:56.620Z,10.48
2024-02-19T04:43:43.107Z,12.32
2024-02-19T04:46:23.178Z,10.93
2024-02-19T04:49:10.175Z,7.88
2024-02-19T04:51:50.166Z,8.02
2024-02-19T04:54:37.150Z,8.65
2024-02-19T04:57:30.962Z,9.48
2024-02-19T05:00:19.147Z,7.97
2024-02-19T05:02:59.132Z,7.25
2024-02-19T05:05:47.098Z,7.85
2024-02-19T05:08:27.099Z,9.82
2024-02-19T05:11:15.168Z,8.10
2024-02-19T05:13:55.216Z,8.13
2024-02-19T05:16:42.100Z,7.57
2024-02-19T05:19:23.076Z,7.53
2024-02-19T05:22:11.107Z,7.18
2024-02-19T05:24:51.269Z,8.07
2024-02-19T05:27:38.015Z,9.52
2024-02-19T05:30:21.421Z,9.98
2024-02-19T05:33:09.165Z,10.63
2024-02-19T05:35:49.198Z,10.85
2024-02-19T05:38:39.762Z,9.38
2024-02-19T05:41:20.115Z,9.75
2024-02-19T05:44:06.989Z,11.65
2024-02-19T05:46:47.267Z,12.00
2024-02-19T05:49:34.250Z,12.57
2024-02-19T05:52:14.149Z,9.10
2024-02-19T05:55:01.089Z,11.38
2024-02-19T05:57:55.138Z,11.93
2024-02-19T06:00:42.180Z,10.95
2024-02-19T06:03:22.703Z,9.63
2024-02-19T06:06:11.024Z,10.15
2024-02-19T06:08:52.337Z,7.75
2024-02-19T06:11:39.041Z,7.10
2024-02-19T06:14:20.154Z,7.55
2024-02-19T06:17:07.081Z,7.15
2024-02-19T06:19:47.208Z,6.78
2024-02-19T06:22:34.041Z,6.57
2024-02-19T06:25:15.211Z,6.78
2024-02-19T06:28:02.040Z,6.55
2024-02-19T06:30:42.129Z,6.85
2024-02-19T06:33:30.221Z,6.75
2024-02-19T06:36:11.120Z,6.15
2024-02-19T06:38:58.030Z,5.88
2024-02-19T06:41:39.169Z,7.53
2024-02-19T06:44:26.027Z,8.38
2024-02-19T06:47:07.158Z,7.57
2024-02-19T06:49:54.091Z,6.72
2024-02-19T06:52:34.036Z,7.63
2024-02-19T06:55:23.111Z,7.32
2024-02-19T06:58:10.187Z,7.97
2024-02-19T07:00:51.135Z,7.40
2024-02-19T07:03:38.267Z,7.25
2024-02-19T07:06:19.071Z,7.30
2024-02-19T07:09:06.230Z,9.07
2024-02-19T07:11:46.039Z,7.93
2024-02-19T07:14:33.065Z,10.32
2024-02-19T07:17:13.140Z,9.38
2024-02-19T07:20:00.392Z,8.23
2024-02-19T07:22:42.028Z,8.43
2024-02-19T07:25:29.103Z,10.30
2024-02-19T07:28:10.002Z,9.07
2024-02-19T07:30:57.226Z,8.38
2024-02-19T07:33:38.128Z,8.65
2024-02-19T07:36:25.093Z,9.52
2024-02-19T07:39:06.002Z,7.43
2024-02-19T07:41:53.111Z,5.97
2024-02-19T07:44:34.008Z,5.97
2024-02-19T07:47:21.019Z,5.90
2024-02-19T07:50:02.073Z,6.15
2024-02-19T07:52:50.252Z,7.03
2024-02-19T07:55:30.014Z,6.50
2024-02-19T07:58:03.947Z,6.82
2024-02-19T08:00:31.276Z,6.90
2024-02-19T08:02:59.873Z,6.85
2024-02-19T08:05:27.275Z,6.25
2024-02-19T08:07:54.847Z,5.95
2024-02-19T08:10:22.401Z,5.80
2024-02-19T08:12:49.902Z,6.07
2024-02-19T08:15:17.339Z,5.07
2024-02-19T08:17:44.745Z,5.93
2024-02-19T08:20:12.254Z,5.65
2024-02-19T08:22:39.631Z,5.28
2024-02-19T08:25:07.096Z,5.50
2024-02-19T08:27:34.475Z,5.53
2024-02-19T08:30:01.761Z,5.40
2024-02-19T08:32:29.421Z,5.28
2024-02-19T08:34:56.726Z,4.97
2024-02-19T08:37:24.340Z,4.47
2024-02-19T08:39:51.754Z,5.28
2024-02-19T08:42:19.173Z,5.00
2024-02-19T08:44:47.115Z,4.88
2024-02-19T08:47:14.450Z,5.13
2024-02-19T08:49:42.244Z,4.70
2024-02-19T08:52:09.767Z,5.13
2024-02-19T08:54:37.569Z,4.95
2024-02-19T08:57:05.283Z,4.70
2024-02-19T08:59:32.513Z,4.55
2024-02-19T09:02:00.024Z,4.60
2024-02-19T09:04:27.621Z,4.22
2024-02-19T09:06:55.112Z,4.10
2024-02-19T09:09:22.450Z,4.00
2024-02-19T09:11:49.970Z,4.85
2024-02-19T09:14:17.420Z,4.75
2024-02-19T09:16:44.769Z,5.10
2024-02-19T09:19:12.279Z,4.97
2024-02-19T09:21:40.475Z,4.05
2024-02-19T09:24:07.733Z,4.82
2024-02-19T09:26:35.092Z,4.95
2024-02-19T09:29:02.353Z,4.43
2024-02-19T09:31:29.643Z,4.57
2024-02-19T09:33:57.004Z,3.90
2024-02-19T09:36:24.340Z,4.20
2024-02-19T09:38:51.539Z,3.63
2024-02-19T09:41:19.326Z,3.42
2024-02-19T09:43:46.697Z,3.55
2024-02-19T09:46:16.110Z,3.95
2024-02-19T09:48:49.902Z,4.45
2024-02-19T09:51:29.542Z,4.30
2024-02-19T09:54:05.351Z,3.78
2024-02-19T09:56:34.696Z,4.10
2024-02-19T09:59:02.149Z,4.00
2024-02-19T10:01:29.593Z,3.97
2024-02-19T10:03:58.375Z,3.55
2024-02-19T10:06:38.809Z,4.20
2024-02-19T10:09:07.789Z,4.10
2024-02-19T10:11:36.516Z,3.28
2024-02-19T10:14:05.480Z,3.78
2024-02-19T10:16:33.214Z,4.30
2024-02-19T10:19:03.870Z,3.67
2024-02-19T10:21:31.719Z,3.85
2024-02-19T10:23:59.003Z,3.97
2024-02-19T10:26:26.432Z,3.92
2024-02-19T10:28:56.447Z,4.05
2024-02-19T10:31:24.541Z,3.20
2024-02-19T10:33:52.237Z,3.60
2024-02-19T10:36:23.746Z,2.90
2024-02-19T10:38:52.312Z,2.90
2024-02-19T10:41:22.310Z,2.90
2024-02-19T10:43:51.259Z,3.05
2024-02-19T10:46:23.173Z,3.67
2024-02-19T10:48:53.291Z,3.60
2024-02-19T10:51:23.071Z,3.47
2024-02-19T10:53:53.701Z,3.70
2024-02-19T10:56:20.989Z,3.28
2024-02-19T10:58:54.152Z,3.22
2024-02-19T11:01:24.349Z,3.60
2024-02-19T11:03:51.988Z,3.22
2024-02-19T11:06:23.778Z,3.47
2024-02-19T11:08:55.296Z,3.53
2024-02-19T11:11:23.936Z,2.80
2024-02-19T11:13:51.648Z,2.85
2024-02-19T11:16:20.541Z,2.85
2024-02-19T11:18:53.286Z,3.63
2024-02-19T11:21:22.198Z,3.47
2024-02-19T11:23:49.378Z,3.55
2024-02-19T11:26:16.679Z,3.28
2024-02-19T11:28:44.617Z,3.17
2024-02-19T11:31:15.877Z,2.80
2024-02-19T11:33:43.372Z,3.28
2024-02-19T11:36:10.761Z,3.45
2024-02-19T11:38:40.240Z,3.40
2024-02-19T11:41:11.428Z,3.47
2024-02-19T11:43:39.893Z,3.60
2024-02-19T11:46:07.895Z,3.00
2024-02-19T11:48:37.559Z,3.42
2024-02-19T11:51:06.491Z,3.63
2024-02-19T11:53:33.894Z,3.75
2024-02-19T11:56:02.648Z,3.22
2024-02-19T11:58:30.294Z,3.05
2024-02-19T12:00:58.128Z,3.80
2024-02-19T12:03:26.696Z,3.15
2024-02-19T12:05:55.169Z,3.30
2024-02-19T12:08:23.823Z,3.15
2024-02-19T12:10:51.095Z,3.58
2024-02-19T12:13:18.520Z,3.70
2024-02-19T12:15:48.926Z,3.20
2024-02-19T12:18:16.768Z,3.20
2024-02-19T12:20:44.347Z,3.60
2024-02-19T12:23:11.670Z,3.05
2024-02-19T12:25:40.609Z,3.30
2024-02-19T12:28:07.956Z,3.15
2024-02-19T12:30:35.457Z,3.08
2024-02-19T12:33:03.157Z,3.10
2024-02-19T12:35:30.606Z,3.30
2024-02-19T12:37:58.044Z,3.53
2024-02-19T12:40:25.441Z,2.90
2024-02-19T12:42:52.871Z,3.17
2024-02-19T12:45:21.283Z,3.72
2024-02-19T12:47:48.684Z,3.03
2024-02-19T12:50:17.348Z,3.58
2024-02-19T12:52:45.033Z,2.90
2024-02-19T12:55:15.875Z,3.55
2024-02-19T12:57:46.839Z,3.27
2024-02-19T13:00:14.976Z,3.58
2024-02-19T13:02:42.257Z,3.05
2024-02-19T13:05:09.851Z,2.90
2024-02-19T13:07:38.093Z,3.40
2024-02-19T13:10:06.031Z,3.70
2024-02-19T13:12:33.219Z,3.22
2024-02-19T13:15:02.340Z,3.47
2024-02-19T13:17:39.302Z,3.63
2024-02-19T13:20:11.571Z,3.28
2024-02-19T13:22:38.987Z,4.03
2024-02-19T13:25:08.275Z,3.10
2024-02-19T13:27:35.700Z,3.05
2024-02-19T13:30:03.295Z,2.90
2024-02-19T13:32:31.187Z,3.13
2024-02-19T13:34:58.698Z,3.40
2024-02-19T13:37:27.251Z,3.60
2024-02-19T13:39:55.063Z,3.30
2024-02-19T13:42:25.186Z,3.50
2024-02-19T13:44:52.679Z,3.20
2024-02-19T13:47:19.859Z,3.72
2024-02-19T13:49:47.444Z,3.10
2024-02-19T13:52:15.076Z,2.85
2024-02-19T13:54:42.418Z,3.20
2024-02-19T13:57:10.418Z,3.95
2024-02-19T13:59:37.701Z,3.40
2024-02-19T14:02:06.246Z,3.97
2024-02-19T14:04:33.535Z,3.10
2024-02-19T14:07:01.462Z,3.67
2024-02-19T14:09:28.789Z,3.15
2024-02-19T14:11:56.158Z,2.92
2024-02-19T14:14:23.409Z,3.33
2024-02-19T14:16:51.462Z,3.50
2024-02-19T14:19:18.995Z,3.45
2024-02-19T14:21:48.983Z,3.22
2024-02-19T14:24:17.024Z,3.38
2024-02-19T14:26:44.854Z,2.88
2024-02-19T14:29:13.021Z,3.58
2024-02-19T14:31:40.392Z,3.55
2024-02-19T14:34:08.239Z,3.03
2024-02-19T14:36:36.320Z,3.42
2024-02-19T14:39:03.834Z,3.25
2024-02-19T14:41:31.659Z,3.00
2024-02-19T14:43:59.173Z,3.15
2024-02-19T14:46:26.616Z,3.78
2024-02-19T14:48:54.265Z,3.67
2024-02-19T14:51:24.505Z,3.63
2024-02-19T14:53:55.424Z,3.30
2024-02-19T14:56:22.917Z,3.75
2024-02-19T14:58:50.209Z,3.33
2024-02-19T15:01:17.749Z,3.50
2024-02-19T15:03:45.222Z,4.10
2024-02-19T15:06:12.742Z,3.90
2024-02-19T15:08:39.941Z,3.45
2024-02-19T15:11:07.250Z,3.60
2024-02-19T15:13:35.095Z,3.60
2024-02-19T15:16:02.530Z,3.72
2024-02-19T15:18:30.588Z,4.82
2024-02-19T15:20:58.194Z,3.65
2024-02-19T15:23:25.351Z,3.42
2024-02-19T15:25:52.786Z,4.30
2024-02-19T15:28:20.263Z,3.80
2024-02-19T15:30:47.512Z,3.45
2024-02-19T15:33:14.924Z,3.88
2024-02-19T15:35:42.297Z,3.45
2024-02-19T15:38:10.400Z,4.72
2024-02-19T15:40:39.042Z,3.90
2024-02-19T15:43:06.590Z,3.97
2024-02-19T15:45:34.578Z,3.97
2024-02-19T15:48:02.015Z,3.80
2024-02-19T15:50:29.401Z,3.85
2024-02-19T15:53:01.961Z,3.60
2024-02-19T15:55:33.718Z,3.90
2024-02-19T15:58:01.349Z,4.20
2024-02-19T16:00:30.611Z,4.65
2024-02-19T16:02:57.858Z,4.47
2024-02-19T16:05:25.366Z,4.68
2024-02-19T16:07:52.705Z,4.45
2024-02-19T16:10:21.388Z,5.00
2024-02-19T16:12:50.752Z,5.00
2024-02-19T16:15:18.306Z,4.25
2024-02-19T16:17:46.054Z,4.60
2024-02-19T16:20:13.442Z,4.13
2024-02-19T16:22:42.345Z,4.13
2024-02-19T16:25:10.069Z,4.03
2024-02-19T16:27:37.292Z,4.45
2024-02-19T16:30:07.983Z,4.53
2024-02-19T16:32:37.406Z,4.68
2024-02-19T16:35:05.340Z,4.53
2024-02-19T16:37:32.947Z,4.80
2024-02-19T16:40:00.216Z,5.95
2024-02-19T16:42:27.599Z,5.40
2024-02-19T16:44:54.988Z,4.95
2024-02-19T16:47:22.488Z,4.18
2024-02-19T16:49:49.772Z,4.00
2024-02-19T16:52:17.110Z,5.38
2024-02-19T16:54:45.787Z,4.85
2024-02-19T16:57:13.248Z,4.43
2024-02-19T16:59:40.497Z,4.13
2024-02-19T17:02:07.973Z,4.05
2024-02-19T17:04:35.424Z,4.00
2024-02-19T17:07:05.330Z,4.65
2024-02-19T17:09:35.322Z,3.80
2024-02-19T17:12:02.936Z,3.90
2024-02-19T17:14:30.231Z,4.00
2024-02-19T17:16:59.651Z,3.92
2024-02-19T17:19:27.395Z,4.40
2024-02-19T17:21:55.624Z,5.10
2024-02-19T17:24:23.138Z,3.80
2024-02-19T17:26:50.527Z,3.75
2024-02-19T17:29:18.087Z,4.22
2024-02-19T17:31:48.864Z,3.90
2024-02-19T17:34:18.563Z,4.35
2024-02-19T17:36:46.391Z,4.18
2024-02-19T17:39:13.626Z,4.43
2024-02-19T17:41:40.913Z,4.45
2024-02-19T17:44:08.327Z,4.00
2024-02-19T17:46:35.852Z,3.95
2024-02-19T17:49:04.643Z,3.95
2024-02-19T17:51:32.939Z,4.75
2024-02-19T17:54:02.375Z,4.68
2024-02-19T17:56:30.082Z,4.30
2024-02-19T17:58:57.620Z,4.90
2024-02-19T18:01:27.135Z,4.50
2024-02-19T18:03:55.834Z,4.60
2024-02-19T18:06:23.180Z,4.22
2024-02-19T18:08:52.242Z,4.00
2024-02-19T18:11:20.409Z,4.40
2024-02-19T18:13:48.157Z,5.85
2024-02-19T18:16:16.129Z,5.43
2024-02-19T18:18:45.982Z,3.97
2024-02-19T18:21:13.334Z,4.38
2024-02-19T18:23:40.875Z,4.05
2024-02-19T18:26:08.580Z,3.80
2024-02-19T18:28:37.161Z,4.63
2024-02-19T18:31:05.424Z,4.35
2024-02-19T18:33:33.271Z,4.60
2024-02-19T18:36:00.512Z,4.90
2024-02-19T18:38:27.876Z,4.95
2024-02-19T18:40:57.740Z,4.75
2024-02-19T18:43:26.968Z,5.85
2024-02-19T18:45:54.455Z,5.28
2024-02-19T18:48:22.644Z,4.90
2024-02-19T18:50:50.448Z,5.10
2024-02-19T18:53:17.674Z,4.65
2024-02-19T18:55:45.330Z,4.35
2024-02-19T18:58:12.573Z,4.05
2024-02-19T19:00:39.796Z,3.78
2024-02-19T19:03:07.272Z,4.60
2024-02-19T19:05:35.609Z,3.88
2024-02-19T19:08:03.289Z,4.30
2024-02-19T19:10:30.673Z,4.10
2024-02-19T19:12:57.924Z,4.05
2024-02-19T19:15:25.168Z,4.15
2024-02-19T19:17:52.693Z,4.90
2024-02-19T19:20:20.180Z,4.55
2024-02-19T19:22:47.566Z,4.93
2024-02-19T19:25:15.483Z,4.07
2024-02-19T19:27:42.733Z,4.03
2024-02-19T19:30:10.205Z,3.53
2024-02-19T19:32:37.624Z,3.97
2024-02-19T19:35:05.452Z,4.95
2024-02-19T19:37:33.096Z,4.03
2024-02-19T19:40:02.277Z,3.55
2024-02-19T19:42:29.733Z,3.78
2024-02-19T19:44:56.958Z,3.90
2024-02-19T19:47:24.541Z,4.13
2024-02-19T19:49:52.864Z,3.58
2024-02-19T19:52:20.379Z,3.50
2024-02-19T19:54:48.092Z,3.67
2024-02-19T19:57:15.576Z,3.72
2024-02-19T19:59:49.583Z,3.92
2024-02-19T20:02:17.536Z,4.15
2024-02-19T20:04:46.901Z,4.30
2024-02-19T20:07:14.179Z,4.15
2024-02-19T20:09:43.897Z,5.03
2024-02-19T20:12:13.248Z,4.85
2024-02-19T20:14:41.171Z,4.45
2024-02-19T20:17:08.812Z,4.47
2024-02-19T20:19:36.883Z,4.07
2024-02-19T20:22:04.917Z,3.97
2024-02-19T20:24:32.703Z,3.15
2024-02-19T20:27:02.133Z,4.05
2024-02-19T20:29:29.755Z,4.05
2024-02-19T20:32:02.278Z,4.00
2024-02-19T20:34:31.372Z,3.95
2024-02-19T20:36:59.162Z,3.90
2024-02-19T20:39:26.519Z,3.80
2024-02-19T20:41:53.952Z,3.92
2024-02-19T20:44:21.591Z,3.80
2024-02-19T20:46:48.994Z,3.53
2024-02-19T20:49:16.409Z,3.63
2024-02-19T20:51:45.813Z,4.10
2024-02-19T20:54:13.111Z,4.25
2024-02-19T20:56:44.360Z,3.50
2024-02-19T20:59:11.838Z,3.83
2024-02-19T21:01:40.675Z,4.10
2024-02-19T21:04:08.981Z,4.70
2024-02-19T21:06:37.001Z,3.88
2024-02-19T21:09:04.718Z,4.15
2024-02-19T21:11:32.756Z,4.47
2024-02-19T21:14:00.812Z,3.80
2024-02-19T21:16:28.096Z,4.00
2024-02-19T21:18:55.602Z,4.45
2024-02-19T21:21:30.355Z,4.38
2024-02-19T21:24:03.788Z,4.53
2024-02-19T21:26:32.110Z,4.63
2024-02-19T21:28:59.779Z,4.57
2024-02-19T21:31:27.603Z,4.45
2024-02-19T21:33:55.254Z,3.72
2024-02-19T21:36:22.613Z,4.20
2024-02-19T21:38:50.732Z,4.60
2024-02-19T21:41:18.198Z,4.82
2024-02-19T21:43:45.569Z,4.63
2024-02-19T21:46:13.759Z,4.60
2024-02-19T21:48:42.200Z,4.38
2024-02-19T21:51:09.863Z,4.35
2024-02-19T21:53:37.320Z,4.20
2024-02-19T21:56:04.952Z,4.05
2024-02-19T21:58:32.315Z,4.38
2024-02-19T22:00:59.874Z,3.78
2024-02-19T22:03:27.339Z,3.75
2024-02-19T22:05:54.702Z,4.03
2024-02-19T22:08:42.229Z,4.47
2024-02-19T22:11:11.301Z,4.05
2024-02-19T22:13:38.734Z,4.20
2024-02-19T22:16:06.578Z,4.20
2024-02-19T22:18:34.149Z,4.45
2024-02-19T22:21:01.784Z,4.68
2024-02-19T22:23:29.182Z,4.22
2024-02-19T22:25:56.475Z,4.88
2024-02-19T22:28:23.941Z,4.57
2024-02-19T22:30:51.417Z,4.03
2024-02-19T22:33:18.990Z,5.07
2024-02-19T22:35:47.548Z,4.45
2024-02-19T22:38:15.031Z,4.60
2024-02-19T22:40:43.050Z,4.63
2024-02-19T22:43:12.104Z,5.57
2024-02-19T22:45:39.517Z,5.18
2024-02-19T22:48:10.293Z,4.28
2024-02-19T22:50:39.134Z,5.07
2024-02-19T22:53:06.742Z,4.65
2024-02-19T22:55:34.155Z,4.60
2024-02-19T22:58:01.737Z,4.90
2024-02-19T23:00:36.530Z,5.68
2024-02-19T23:03:05.073Z,5.05
2024-02-19T23:05:32.952Z,6.07
2024-02-19T23:08:01.912Z,6.28
2024-02-19T23:10:29.593Z,7.30
2024-02-19T23:12:57.563Z,7.10
2024-02-19T23:15:26.382Z,7.85
2024-02-19T23:17:54.128Z,7.30
2024-02-19T23:20:21.673Z,6.65
2024-02-19T23:22:49.360Z,6.32
2024-02-19T23:25:16.826Z,5.82
2024-02-19T23:27:44.298Z,5.65
2024-02-19T23:30:12.924Z,6.43
2024-02-19T23:32:40.701Z,5.60
2024-02-19T23:35:09.047Z,5.78
2024-02-19T23:37:37.141Z,5.10
2024-02-19T23:40:15.269Z,5.60
2024-02-19T23:42:43.046Z,5.43
2024-02-19T23:45:12.312Z,5.30
2024-02-19T23:47:41.028Z,4.68
2024-02-19T23:50:10.091Z,4.75
2024-02-19T23:52:41.137Z,4.93
2024-02-19T23:55:10.704Z,6.05
2024-02-19T23:57:38.952Z,5.40
